Time;durP1;ratioP1;P1;durP2;ratioP2;P2;SDS_P1;SDS_P2;PMS_P1;PMS_P2;Temp;Humidity;BMP_temperature;BMP_pressure;BME280_temperature;BME280_humidity;BME280_pressure;Samples;Min_cycle;Max_cycle;Signal;HPM_P1;HPM_P2
2021/04/24 00:00:15;;;;;;;6.97;4.25;;;19.90;59.30;;;;;;4955730;29;20046;-65
2021/04/24 00:02:44;;;;;;;4.53;3.70;;;20.00;58.40;;;;;;4954311;29;20039;-65
2021/04/24 00:05:23;;;;;;;5.97;4.05;;;20.10;57.30;;;;;;4955828;29;20434;-66
2021/04/24 00:08:01;;;;;;;5.97;3.85;;;20.20;57.60;;;;;;4955647;29;20023;-66
2021/04/24 00:10:30;;;;;;;5.10;3.70;;;20.30;57.10;;;;;;4937880;29;20358;-65
2021/04/24 00:12:58;;;;;;;8.60;3.97;;;20.40;58.40;;;;;;4953527;29;20023;-67
2021/04/24 00:15:26;;;;;;;4.97;3.50;;;20.50;57.20;;;;;;4955401;29;20151;-64
2021/04/24 00:17:53;;;;;;;15.95;4.78;;;20.60;57.10;;;;;;4955065;29;20489;-66
2021/04/24 00:20:23;;;;;;;6.57;3.63;;;20.70;55.40;;;;;;4955680;29;20533;-65
2021/04/24 00:22:51;;;;;;;5.72;3.92;;;20.80;56.10;;;;;;4955772;29;20110;-65
2021/04/24 00:25:20;;;;;;;5.38;3.47;;;20.70;56.90;;;;;;4954773;29;20615;-68
2021/04/24 00:27:48;;;;;;;8.93;3.60;;;20.80;56.80;;;;;;4954704;29;20122;-66
2021/04/24 00:30:16;;;;;;;8.43;3.67;;;20.80;56.70;;;;;;4938588;29;20038;-66
2021/04/24 00:32:45;;;;;;;5.75;4.07;;;21.00;54.90;;;;;;4955385;29;20505;-65
2021/04/24 00:35:13;;;;;;;5.18;3.67;;;21.00;55.20;;;;;;4955062;29;20059;-64
2021/04/24 00:37:40;;;;;;;6.97;3.80;;;21.00;55.40;;;;;;4954898;28;20027;-66
2021/04/24 00:40:09;;;;;;;5.97;3.30;;;21.20;54.90;;;;;;4956178;29;20069;-63
2021/04/24 00:42:37;;;;;;;5.25;3.30;;;21.10;54.90;;;;;;4956117;29;20027;-66
2021/04/24 00:45:07;;;;;;;6.97;3.38;;;21.20;54.40;;;;;;4955185;29;20091;-64
2021/04/24 00:47:35;;;;;;;5.32;3.88;;;21.20;55.80;;;;;;4955142;29;20035;-63
2021/04/24 00:50:04;;;;;;;6.85;3.42;;;21.30;55.10;;;;;;4955099;29;20047;-64
2021/04/24 00:52:31;;;;;;;6.30;3.53;;;21.30;54.60;;;;;;4956403;29;20474;-65
2021/04/24 00:54:59;;;;;;;5.93;3.45;;;21.40;53.90;;;;;;4956546;29;20386;-66
2021/04/24 00:57:29;;;;;;;6.13;3.67;;;21.40;54.50;;;;;;4937637;29;20027;-64
2021/04/24 00:59:56;;;;;;;7.28;3.13;;;21.40;55.80;;;;;;4954210;29;20039;-65
2021/04/24 01:02:24;;;;;;;5.22;3.42;;;21.50;54.10;;;;;;4954937;29;20055;-66
2021/04/24 01:04:51;;;;;;;4.65;3.17;;;21.70;54.80;;;;;;4954842;29;20382;-64
2021/04/24 01:07:19;;;;;;;5.45;3.60;;;21.70;54.70;;;;;;4954243;29;20038;-66
2021/04/24 01:09:46;;;;;;;8.02;3.30;;;21.60;52.80;;;;;;4953978;29;20039;-65
2021/04/24 01:12:13;;;;;;;4.45;3.20;;;21.70;54.20;;;;;;4954634;29;20175;-64
2021/04/24 01:14:41;;;;;;;7.82;3.65;;;21.80;54.90;;;;;;4953727;29;20035;-67
2021/04/24 01:17:08;;;;;;;8.77;3.22;;;21.70;54.60;;;;;;4953864;29;20031;-64
2021/04/24 01:19:37;;;;;;;3.90;3.05;;;21.70;53.50;;;;;;4952629;29;20031;-66
2021/04/24 01:22:11;;;;;;;6.22;3.35;;;21.80;54.20;;;;;;4953945;29;20034;-65
2021/04/24 01:24:38;;;;;;;6.18;2.92;;;21.90;52.90;;;;;;4954161;29;20128;-65
2021/04/24 01:27:07;;;;;;;7.93;2.95;;;22.00;54.30;;;;;;4954044;29;20031;-64
2021/04/24 01:29:37;;;;;;;7.93;3.42;;;22.00;53.40;;;;;;4953924;29;20029;-65
2021/04/24 01:32:08;;;;;;;5.55;3.45;;;21.90;54.90;;;;;;4952556;29;20031;-65
2021/04/24 01:34:36;;;;;;;4.85;2.95;;;22.00;53.00;;;;;;4953587;29;20031;-66
2021/04/24 01:37:04;;;;;;;8.10;3.67;;;22.10;54.40;;;;;;4935862;29;20035;-66
2021/04/24 01:39:32;;;;;;;5.97;3.60;;;22.10;54.20;;;;;;4952352;29;20089;-64
2021/04/24 01:41:59;;;;;;;8.55;3.22;;;22.10;55.00;;;;;;4953331;29;20027;-65
2021/04/24 01:44:27;;;;;;;6.65;3.38;;;22.10;54.30;;;;;;4935867;29;20099;-65
2021/04/24 01:46:57;;;;;;;8.07;2.85;;;22.20;54.40;;;;;;4953098;29;20220;-65
2021/04/24 01:49:25;;;;;;;4.85;3.50;;;22.30;53.10;;;;;;4954602;28;20088;-64
2021/04/24 01:51:52;;;;;;;3.83;3.20;;;22.40;54.20;;;;;;4956632;29;20031;-67
2021/04/24 01:54:20;;;;;;;5.95;3.42;;;22.40;53.10;;;;;;4956995;29;20386;-66
2021/04/24 01:56:58;;;;;;;8.50;3.00;;;22.50;53.00;;;;;;4956738;29;20422;-65
2021/04/24 01:59:32;;;;;;;6.82;3.30;;;22.40;53.00;;;;;;4956514;29;20031;-65
2021/04/24 02:02:00;;;;;;;3.58;2.85;;;22.50;54.00;;;;;;4956877;29;20372;-65
2021/04/24 02:04:28;;;;;;;4.32;2.75;;;22.60;53.70;;;;;;4956650;29;20095;-65
2021/04/24 02:06:56;;;;;;;6.43;3.28;;;22.60;53.60;;;;;;4939490;29;20111;-64
2021/04/24 02:09:24;;;;;;;4.03;2.75;;;22.40;52.30;;;;;;4956550;29;20024;-64
2021/04/24 02:12:04;;;;;;;4.25;3.08;;;22.50;54.00;;;;;;4956611;29;20031;-65
2021/04/24 02:14:53;;;;;;;4.82;3.20;;;22.60;52.40;;;;;;4956476;29;20034;-65
2021/04/24 02:17:26;;;;;;;4.50;2.88;;;22.60;54.20;;;;;;4956906;29;20127;-65
2021/04/24 02:19:54;;;;;;;6.32;2.83;;;22.60;53.90;;;;;;4957030;29;20110;-66
2021/04/24 02:22:24;;;;;;;4.30;2.72;;;22.70;54.10;;;;;;4957312;29;20565;-65
2021/04/24 02:25:00;;;;;;;3.95;2.90;;;22.80;53.70;;;;;;4958535;29;20443;-65
2021/04/24 02:27:28;;;;;;;4.32;2.78;;;22.90;54.10;;;;;;4957705;29;20497;-64
2021/04/24 02:29:56;;;;;;;4.22;2.90;;;23.00;53.60;;;;;;4956904;29;20401;-66
2021/04/24 02:32:31;;;;;;;4.05;2.60;;;22.90;53.30;;;;;;4957264;29;20019;-65
2021/04/24 02:34:59;;;;;;;4.88;2.95;;;23.00;53.80;;;;;;4954316;29;20074;-67
2021/04/24 02:37:27;;;;;;;4.93;2.90;;;23.20;53.30;;;;;;4956720;29;20020;-65
2021/04/24 02:39:55;;;;;;;7.32;2.78;;;23.30;53.20;;;;;;4956468;29;20031;-65
2021/04/24 02:42:25;;;;;;;3.35;2.38;;;23.40;51.50;;;;;;4956887;29;20023;-66
2021/04/24 02:44:55;;;;;;;3.83;2.83;;;23.30;52.90;;;;;;4939347;29;20023;-66
2021/04/24 02:47:23;;;;;;;5.63;2.78;;;23.20;53.20;;;;;;4939150;29;20091;-67
2021/04/24 02:49:51;;;;;;;4.85;2.75;;;23.30;53.30;;;;;;4967097;28;20102;-64
2021/04/24 02:52:19;;;;;;;4.25;2.90;;;23.10;52.70;;;;;;4976024;28;20031;-66
2021/04/24 02:54:46;;;;;;;4.55;3.00;;;23.30;53.40;;;;;;4975938;28;20045;-67
2021/04/24 02:57:15;;;;;;;4.00;2.63;;;23.30;53.20;;;;;;4975964;28;20042;-65
2021/04/24 02:59:42;;;;;;;4.47;2.80;;;23.30;53.40;;;;;;4975813;28;20362;-66
2021/04/24 03:02:09;;;;;;;4.72;2.60;;;23.40;53.30;;;;;;4975576;28;20037;-66
2021/04/24 03:04:37;;;;;;;4.28;2.65;;;23.50;52.40;;;;;;4968070;28;20112;-64
2021/04/24 03:07:04;;;;;;;5.22;2.92;;;23.70;51.90;;;;;;4972192;28;20031;-64
2021/04/24 03:09:31;;;;;;;3.08;2.33;;;23.80;52.20;;;;;;4972450;28;20126;-65
2021/04/24 03:11:59;;;;;;;7.20;2.70;;;24.00;52.10;;;;;;4972936;28;20097;-64
2021/04/24 03:14:26;;;;;;;3.10;2.35;;;24.00;51.10;;;;;;4972918;28;20038;-67
2021/04/24 03:16:54;;;;;;;4.90;3.05;;;24.00;51.90;;;;;;4953571;28;20058;-63
2021/04/24 03:19:21;;;;;;;4.55;2.80;;;24.20;51.60;;;;;;4972644;28;20023;-62
2021/04/24 03:21:49;;;;;;;7.30;3.00;;;24.00;51.00;;;;;;4970623;28;20037;-65
2021/04/24 03:24:16;;;;;;;5.68;2.50;;;24.20;50.10;;;;;;4972546;28;20038;-63
2021/04/24 03:26:43;;;;;;;3.95;2.47;;;24.10;52.00;;;;;;4967273;28;20026;-66
2021/04/24 03:29:11;;;;;;;5.25;2.50;;;24.50;50.30;;;;;;4971312;28;20442;-62
2021/04/24 03:31:38;;;;;;;4.30;2.20;;;24.50;51.50;;;;;;4964748;28;20023;-67
2021/04/24 03:34:05;;;;;;;3.13;2.28;;;24.50;49.20;;;;;;4960808;28;20037;-66
2021/04/24 03:36:33;;;;;;;4.97;2.70;;;24.60;51.10;;;;;;4971416;28;20022;-65
2021/04/24 03:39:00;;;;;;;3.65;2.30;;;24.50;50.70;;;;;;4963777;28;20029;-65
2021/04/24 03:41:28;;;;;;;3.88;2.55;;;24.60;51.20;;;;;;4974211;28;20046;-67
2021/04/24 03:43:56;;;;;;;3.75;2.17;;;24.50;51.10;;;;;;4973866;28;20030;-68
2021/04/24 03:46:23;;;;;;;3.42;2.08;;;24.50;50.10;;;;;;4972598;28;20093;-65
2021/04/24 03:48:51;;;;;;;3.60;2.47;;;24.60;51.30;;;;;;4955466;28;20031;-66
2021/04/24 03:51:18;;;;;;;4.20;2.28;;;24.80;48.60;;;;;;4964200;28;20094;-66
2021/04/24 03:53:46;;;;;;;4.13;2.45;;;24.80;50.30;;;;;;4965690;28;20093;-64
2021/04/24 03:56:13;;;;;;;6.22;2.20;;;24.70;51.00;;;;;;4965920;28;20328;-65
2021/04/24 03:58:41;;;;;;;3.28;2.13;;;24.80;50.10;;;;;;4964545;28;20422;-65
2021/04/24 04:01:08;;;;;;;4.95;2.42;;;24.90;50.30;;;;;;4961457;28;20030;-65
2021/04/24 04:03:35;;;;;;;5.22;2.67;;;24.90;50.50;;;;;;4971005;28;20428;-68
2021/04/24 04:06:03;;;;;;;2.63;1.90;;;24.90;50.70;;;;;;4963475;28;20026;-66
2021/04/24 04:08:30;;;;;;;3.78;2.70;;;24.90;50.70;;;;;;4959985;28;20019;-67
2021/04/24 04:10:57;;;;;;;4.07;2.25;;;24.90;50.50;;;;;;4956337;28;20422;-63
2021/04/24 04:13:25;;;;;;;4.72;2.22;;;24.90;48.70;;;;;;4955534;28;20031;-63
2021/04/24 04:15:52;;;;;;;5.32;2.05;;;25.00;48.50;;;;;;4967038;28;20026;-64
2021/04/24 04:18:21;;;;;;;6.82;3.83;;;25.00;49.50;;;;;;4965467;28;20046;-69
2021/04/24 04:20:54;;;;;;;4.57;3.40;;;25.10;45.20;;;;;;4961006;28;20166;-67
2021/04/24 04:23:25;;;;;;;10.77;6.18;;;25.00;47.80;;;;;;4974466;28;20033;-70
2021/04/24 04:25:54;;;;;;;9.23;4.82;;;24.80;48.60;;;;;;4961826;28;20117;-63
2021/04/24 04:28:22;;;;;;;16.13;6.78;;;24.70;47.20;;;;;;4962711;28;20389;-66
2021/04/24 04:30:51;;;;;;;7.55;3.92;;;24.60;49.10;;;;;;4969137;28;20114;-62
2021/04/24 04:33:19;;;;;;;15.95;8.98;;;24.60;42.40;;;;;;4964289;28;20038;-68
2021/04/24 04:35:47;;;;;;;9.73;4.90;;;24.70;47.30;;;;;;4973519;28;20069;-68
2021/04/24 04:38:15;;;;;;;10.52;5.90;;;24.80;46.50;;;;;;4959009;28;20027;-62
2021/04/24 04:40:43;;;;;;;15.32;5.88;;;24.80;46.50;;;;;;4954609;29;20382;-63
2021/04/24 04:43:11;;;;;;;12.88;5.63;;;24.80;46.30;;;;;;4965653;28;20030;-67
2021/04/24 04:45:40;;;;;;;11.48;6.55;;;24.90;47.80;;;;;;4965800;28;20221;-68
2021/04/24 04:48:08;;;;;;;9.65;5.25;;;24.90;48.50;;;;;;4958642;28;20129;-66
2021/04/24 04:50:37;;;;;;;17.17;6.95;;;24.80;47.80;;;;;;4967577;28;20063;-57
2021/04/24 04:53:06;;;;;;;21.30;8.98;;;24.70;47.90;;;;;;4969759;28;20019;-62
2021/04/24 04:55:34;;;;;;;14.63;5.97;;;24.80;48.50;;;;;;4969444;28;20030;-64
2021/04/24 04:58:01;;;;;;;13.50;5.93;;;24.80;48.50;;;;;;4971236;28;20046;-62
2021/04/24 05:00:28;;;;;;;13.25;5.20;;;24.90;48.30;;;;;;4971118;28;20065;-64
2021/04/24 05:02:56;;;;;;;21.35;7.10;;;24.90;47.80;;;;;;4972033;28;20042;-66
2021/04/24 05:05:24;;;;;;;15.30;6.82;;;25.00;48.80;;;;;;4952211;28;20073;-64
2021/04/24 05:07:51;;;;;;;17.98;8.50;;;24.90;47.90;;;;;;4949815;28;20473;-65
2021/04/24 05:10:21;;;;;;;23.80;6.95;;;25.00;48.70;;;;;;4969782;28;20046;-64
2021/04/24 05:12:49;;;;;;;15.38;5.90;;;25.10;48.80;;;;;;4966629;28;20036;-64
2021/04/24 05:15:17;;;;;;;12.32;6.25;;;25.10;49.40;;;;;;4965176;28;20045;-64
2021/04/24 05:17:45;;;;;;;15.75;5.70;;;25.10;49.90;;;;;;4970532;28;20031;-62
2021/04/24 05:20:14;;;;;;;8.73;4.22;;;25.20;50.60;;;;;;4969239;28;20027;-65
2021/04/24 05:22:45;;;;;;;27.52;16.90;;;25.20;49.80;;;;;;4969985;28;20038;-69
2021/04/24 05:25:13;;;;;;;23.50;12.65;;;25.10;49.10;;;;;;4968312;28;20050;-66
2021/04/24 05:27:44;;;;;;;17.25;12.10;;;25.10;49.80;;;;;;4977321;28;20027;-63
2021/04/24 05:30:13;;;;;;;21.48;6.93;;;25.10;50.40;;;;;;4975602;28;20042;-60
2021/04/24 05:32:41;;;;;;;18.50;8.27;;;25.10;51.30;;;;;;4974694;28;20026;-66
2021/04/24 05:35:09;;;;;;;30.45;20.98;;;25.00;51.50;;;;;;4972295;28;20034;-61
2021/04/24 05:37:36;;;;;;;25.60;16.67;;;25.00;52.10;;;;;;4952984;29;20400;-62
2021/04/24 05:40:06;;;;;;;21.15;9.50;;;25.20;50.50;;;;;;4976899;28;20045;-65
2021/04/24 05:42:34;;;;;;;21.75;12.48;;;25.10;50.80;;;;;;4979223;28;20027;-66
2021/04/24 05:45:10;;;;;;;23.77;11.60;;;25.20;52.10;;;;;;4978226;28;20034;-67
2021/04/24 05:47:43;;;;;;;21.90;13.93;;;25.40;51.80;;;;;;4967560;28;20042;-67
2021/04/24 05:50:12;;;;;;;22.20;13.75;;;25.30;51.30;;;;;;4965105;28;20051;-64
2021/04/24 05:52:40;;;;;;;25.85;12.55;;;25.30;51.30;;;;;;4959764;29;20050;-64
2021/04/24 05:55:08;;;;;;;28.35;12.50;;;25.50;52.30;;;;;;4959738;29;20034;-67
2021/04/24 05:57:36;;;;;;;34.25;13.70;;;25.60;53.50;;;;;;4962066;28;20110;-66
2021/04/24 06:00:07;;;;;;;23.92;8.13;;;25.70;54.50;;;;;;4960160;28;20111;-68
2021/04/24 06:02:35;;;;;;;27.90;10.15;;;25.80;53.90;;;;;;4961141;28;20079;-66
2021/04/24 06:05:06;;;;;;;26.65;11.88;;;25.80;53.10;;;;;;4961092;28;20092;-69
2021/04/24 06:07:33;;;;;;;31.17;8.27;;;25.80;52.40;;;;;;4979322;28;20034;-68
2021/04/24 06:10:00;;;;;;;25.05;9.60;;;25.80;53.80;;;;;;4979110;28;20027;-68
2021/04/24 06:12:28;;;;;;;15.88;6.57;;;25.80;53.20;;;;;;4978273;28;20030;-67
2021/04/24 06:14:56;;;;;;;23.33;7.72;;;25.80;52.50;;;;;;4960250;28;20028;-67
2021/04/24 06:17:24;;;;;;;18.67;7.43;;;25.90;51.90;;;;;;4958787;29;20031;-71
2021/04/24 06:19:52;;;;;;;19.77;6.95;;;25.90;53.00;;;;;;4960170;29;20112;-69
2021/04/24 06:22:20;;;;;;;17.08;5.32;;;25.90;52.60;;;;;;4948589;28;20073;-67
2021/04/24 06:24:47;;;;;;;19.88;7.45;;;26.00;51.50;;;;;;4976060;28;20023;-69
2021/04/24 06:27:15;;;;;;;16.48;5.05;;;26.00;52.80;;;;;;4970993;28;20023;-66
2021/04/24 06:29:43;;;;;;;15.15;4.40;;;25.80;51.90;;;;;;4972160;28;20036;-64
2021/04/24 06:32:11;;;;;;;10.25;4.20;;;25.80;51.60;;;;;;4962808;28;20023;-71
2021/04/24 06:34:38;;;;;;;14.88;4.47;;;25.60;51.30;;;;;;4961406;28;20050;-67
2021/04/24 06:37:07;;;;;;;11.88;4.10;;;25.40;52.10;;;;;;4966267;28;20385;-67
2021/04/24 06:39:34;;;;;;;23.23;4.95;;;25.10;52.40;;;;;;4958179;28;20030;-70
2021/04/24 06:42:02;;;;;;;15.93;4.25;;;24.80;53.00;;;;;;4966268;28;20109;-68
2021/04/24 06:44:30;;;;;;;19.90;5.25;;;24.70;53.90;;;;;;4965599;28;20074;-67
2021/04/24 06:46:57;;;;;;;12.98;4.50;;;24.50;54.80;;;;;;4968030;28;20034;-67
2021/04/24 06:49:25;;;;;;;26.73;4.43;;;24.30;54.00;;;;;;4963227;28;20046;-67
2021/04/24 06:51:52;;;;;;;13.52;3.53;;;24.20;55.30;;;;;;4975254;28;20031;-67
2021/04/24 06:54:20;;;;;;;21.17;4.28;;;24.00;55.40;;;;;;4976004;28;20047;-69
2021/04/24 06:56:47;;;;;;;10.10;3.80;;;23.90;55.40;;;;;;4961095;28;20179;-70
2021/04/24 06:59:14;;;;;;;13.30;3.92;;;23.80;55.20;;;;;;4973180;28;20111;-69
2021/04/24 07:01:42;;;;;;;43.30;6.03;;;23.60;55.60;;;;;;4970700;28;20041;-71
2021/04/24 07:04:09;;;;;;;18.42;5.00;;;23.60;56.20;;;;;;4969624;28;20027;-69
2021/04/24 07:06:36;;;;;;;18.92;5.90;;;23.40;57.10;;;;;;4971776;28;20470;-70
2021/04/24 07:09:04;;;;;;;19.55;4.45;;;23.40;57.50;;;;;;4958152;28;20026;-65
2021/04/24 07:11:31;;;;;;;20.05;4.60;;;23.30;57.90;;;;;;4971709;28;20048;-62
2021/04/24 07:13:59;;;;;;;10.57;3.35;;;23.30;59.10;;;;;;4969447;28;20031;-64
2021/04/24 07:16:26;;;;;;;21.33;3.70;;;23.20;58.70;;;;;;4968721;28;20031;-68
2021/04/24 07:18:53;;;;;;;20.45;4.07;;;23.10;60.40;;;;;;4973582;28;20481;-67
2021/04/24 07:21:21;;;;;;;19.85;3.58;;;23.10;60.90;;;;;;4972039;28;20047;-67
2021/04/24 07:23:49;;;;;;;21.75;4.00;;;23.10;61.90;;;;;;4973387;28;20389;-66
2021/04/24 07:26:17;;;;;;;20.90;4.88;;;23.10;62.20;;;;;;4973350;28;20089;-68
2021/04/24 07:28:44;;;;;;;22.17;4.20;;;23.00;62.40;;;;;;4968477;28;20397;-66
2021/04/24 07:31:14;;;;;;;9.65;4.05;;;23.00;63.10;;;;;;4973637;28;20084;-63
2021/04/24 07:33:42;;;;;;;13.43;3.65;;;22.90;62.10;;;;;;4973082;28;20062;-69
2021/04/24 07:36:09;;;;;;;20.38;3.72;;;22.70;63.20;;;;;;4974355;28;20031;-67
2021/04/24 07:38:37;;;;;;;20.90;4.25;;;22.60;64.80;;;;;;4974134;28;20106;-63
2021/04/24 07:41:05;;;;;;;18.63;3.90;;;22.70;63.20;;;;;;4973190;28;20180;-68
2021/04/24 07:43:33;;;;;;;11.77;3.50;;;22.60;64.20;;;;;;4968027;28;20466;-67
2021/04/24 07:46:00;;;;;;;24.88;4.28;;;22.50;64.20;;;;;;4972065;28;20038;-65
2021/04/24 07:48:28;;;;;;;16.85;5.20;;;22.40;64.40;;;;;;4973285;28;20018;-65
2021/04/24 07:50:55;;;;;;;10.40;3.80;;;22.50;65.40;;;;;;4972938;28;20047;-66
2021/04/24 07:53:22;;;;;;;12.60;4.30;;;22.30;66.50;;;;;;4972356;28;20506;-67
2021/04/24 07:55:50;;;;;;;17.45;3.47;;;22.30;66.80;;;;;;4972542;28;20405;-69
2021/04/24 07:58:18;;;;;;;17.10;4.10;;;22.30;66.30;;;;;;4973421;28;20023;-69
2021/04/24 08:00:45;;;;;;;14.55;5.00;;;22.30;65.70;;;;;;4963262;28;20077;-63
2021/04/24 08:03:13;;;;;;;13.30;4.05;;;22.30;67.00;;;;;;4969356;28;20030;-68
2021/04/24 08:05:40;;;;;;;16.67;3.45;;;22.20;65.90;;;;;;4972991;28;20075;-59
2021/04/24 08:08:08;;;;;;;11.75;3.97;;;22.00;66.20;;;;;;4964476;28;20085;-69
2021/04/24 08:10:35;;;;;;;15.05;3.97;;;21.90;67.10;;;;;;4970068;28;20043;-64
2021/04/24 08:13:03;;;;;;;19.52;4.32;;;22.00;66.90;;;;;;4970612;28;20031;-63
2021/04/24 08:15:31;;;;;;;22.77;5.45;;;21.90;67.40;;;;;;4970652;28;20018;-67
2021/04/24 08:17:59;;;;;;;15.30;3.50;;;21.90;67.60;;;;;;4969413;28;20057;-66
2021/04/24 08:20:27;;;;;;;9.70;3.53;;;21.90;67.90;;;;;;4970166;28;20035;-67
2021/04/24 08:22:55;;;;;;;10.90;4.25;;;21.80;68.00;;;;;;4972728;28;20034;-65
2021/04/24 08:25:22;;;;;;;10.85;3.60;;;21.80;68.00;;;;;;4967872;28;20023;-63
2021/04/24 08:27:50;;;;;;;12.95;3.53;;;21.80;68.40;;;;;;4967777;28;20023;-70
2021/04/24 08:30:18;;;;;;;19.23;4.20;;;21.80;68.40;;;;;;4971338;28;20396;-65
2021/04/24 08:32:47;;;;;;;16.35;5.10;;;21.70;68.60;;;;;;4969983;28;20145;-63
2021/04/24 08:35:15;;;;;;;12.57;4.20;;;21.70;68.50;;;;;;4952183;28;20704;-65
2021/04/24 08:37:44;;;;;;;17.35;4.18;;;21.70;68.70;;;;;;4954245;28;20459;-72
2021/04/24 08:40:15;;;;;;;9.88;3.63;;;21.60;68.50;;;;;;4969271;28;20533;-72
2021/04/24 08:42:43;;;;;;;15.35;3.53;;;21.50;68.70;;;;;;4971854;28;20185;-72
2021/04/24 08:45:15;;;;;;;9.45;3.22;;;21.50;68.80;;;;;;4967245;28;20635;-67
2021/04/24 08:47:48;;;;;;;12.15;3.10;;;21.40;69.00;;;;;;4969412;28;20125;-71
2021/04/24 08:50:19;;;;;;;10.55;3.35;;;21.40;69.20;;;;;;4968799;28;20066;-70
2021/04/24 08:52:47;;;;;;;9.50;3.63;;;21.30;69.30;;;;;;4969625;28;20469;-69
2021/04/24 08:55:21;;;;;;;14.18;4.43;;;21.30;69.50;;;;;;4967838;28;20023;-69
2021/04/24 08:57:49;;;;;;;19.20;4.85;;;21.20;69.60;;;;;;4971886;28;20098;-67
2021/04/24 09:00:19;;;;;;;22.85;5.22;;;21.20;69.60;;;;;;4970759;28;20134;-71
2021/04/24 09:02:47;;;;;;;24.33;7.05;;;21.20;69.70;;;;;;4970066;28;20043;-70
2021/04/24 09:05:18;;;;;;;24.40;7.60;;;21.20;69.70;;;;;;4966494;28;20055;-69
2021/04/24 09:07:46;;;;;;;28.17;7.50;;;21.20;69.90;;;;;;4971344;28;20042;-65
2021/04/24 09:10:16;;;;;;;22.42;7.15;;;21.20;70.00;;;;;;4969827;28;20019;-68
2021/04/24 09:12:47;;;;;;;20.17;6.63;;;21.20;69.90;;;;;;4971931;28;20042;-67
2021/04/24 09:15:22;;;;;;;22.45;6.55;;;21.20;70.00;;;;;;4966797;28;20029;-67
2021/04/24 09:17:58;;;;;;;29.75;8.95;;;21.10;70.00;;;;;;4970940;28;20065;-65
2021/04/24 09:20:52;;;;;;;27.13;8.05;;;21.10;70.00;;;;;;4971895;28;20042;-67
2021/04/24 09:23:38;;;;;;;22.25;7.50;;;21.10;70.00;;;;;;4963883;28;20036;-66
2021/04/24 09:26:09;;;;;;;25.10;7.28;;;21.10;70.10;;;;;;4964945;28;20466;-65
2021/04/24 09:28:43;;;;;;;25.77;6.97;;;21.10;70.10;;;;;;4971619;28;20038;-69
2021/04/24 09:31:17;;;;;;;25.63;8.68;;;21.10;70.10;;;;;;4971334;28;20881;-68
2021/04/24 09:33:47;;;;;;;18.92;7.22;;;21.10;70.10;;;;;;4971623;28;20679;-67
2021/04/24 09:36:16;;;;;;;26.27;8.02;;;21.00;70.00;;;;;;4963583;28;20061;-65
2021/04/24 09:38:46;;;;;;;25.23;7.05;;;21.00;70.00;;;;;;4971426;28;20093;-67
2021/04/24 09:41:19;;;;;;;21.10;7.55;;;21.00;70.00;;;;;;4968450;28;20038;-66
2021/04/24 09:44:09;;;;;;;23.67;7.20;;;21.00;70.00;;;;;;4967973;28;20027;-70
2021/04/24 09:46:58;;;;;;;23.63;6.78;;;21.00;69.90;;;;;;4965337;28;20174;-66
2021/04/24 09:49:28;;;;;;;17.58;7.22;;;20.90;69.90;;;;;;4971075;28;20058;-66
2021/04/24 09:52:01;;;;;;;22.75;7.55;;;21.00;69.90;;;;;;4966147;28;20047;-66
2021/04/24 09:54:44;;;;;;;19.80;7.22;;;20.90;69.80;;;;;;4970758;28;20058;-62
2021/04/24 09:57:19;;;;;;;20.40;6.80;;;20.90;69.90;;;;;;4965486;28;20034;-66
2021/04/24 09:59:54;;;;;;;20.58;7.28;;;20.90;69.90;;;;;;4968216;28;20030;-67
2021/04/24 10:02:39;;;;;;;21.15;7.53;;;20.90;69.90;;;;;;4968337;28;20050;-66
2021/04/24 10:05:12;;;;;;;21.02;7.40;;;20.90;69.90;;;;;;4963225;28;20237;-68
2021/04/24 10:07:43;;;;;;;22.38;7.45;;;20.80;69.80;;;;;;4971095;28;20105;-69
2021/04/24 10:10:39;;;;;;;24.10;7.72;;;20.80;69.80;;;;;;4972187;28;20027;-69
2021/04/24 10:13:10;;;;;;;26.90;7.88;;;20.80;69.90;;;;;;4974347;28;20030;-67
2021/04/24 10:15:47;;;;;;;19.02;7.18;;;20.80;70.00;;;;;;4968265;28;20078;-69
2021/04/24 10:18:16;;;;;;;21.55;7.28;;;20.70;70.00;;;;;;4957497;28;20046;-64
2021/04/24 10:20:46;;;;;;;25.30;8.38;;;20.70;70.10;;;;;;4972148;28;20069;-64
2021/04/24 10:23:15;;;;;;;16.65;6.32;;;20.60;70.00;;;;;;4974634;28;20034;-62
2021/04/24 10:25:44;;;;;;;18.33;6.78;;;20.60;70.00;;;;;;4968959;28;20031;-70
2021/04/24 10:28:11;;;;;;;21.27;7.60;;;20.60;70.00;;;;;;4974244;28;20033;-64
2021/04/24 10:30:40;;;;;;;21.40;8.00;;;20.60;69.90;;;;;;4972358;28;20412;-63
2021/04/24 10:33:07;;;;;;;19.77;7.63;;;20.60;69.80;;;;;;4974389;28;20114;-69
2021/04/24 10:35:35;;;;;;;25.92;7.65;;;20.60;69.90;;;;;;4966891;28;20030;-67
2021/04/24 10:38:03;;;;;;;18.73;7.20;;;20.60;69.80;;;;;;4968656;28;20031;-65
2021/04/24 10:40:31;;;;;;;20.67;8.82;;;20.50;69.80;;;;;;4974627;28;20027;-64
2021/04/24 10:43:00;;;;;;;19.55;7.88;;;20.50;69.80;;;;;;4973751;28;20054;-65
2021/04/24 10:45:33;;;;;;;23.10;7.50;;;20.50;69.80;;;;;;4966584;28;20027;-66
2021/04/24 10:48:02;;;;;;;17.38;6.45;;;20.50;69.70;;;;;;4973654;28;20030;-65
2021/04/24 10:50:46;;;;;;;22.60;7.10;;;20.50;69.80;;;;;;4973763;28;20409;-64
2021/04/24 10:53:24;;;;;;;20.33;6.82;;;20.50;69.90;;;;;;4972282;28;20085;-62
2021/04/24 10:55:57;;;;;;;20.80;8.20;;;20.40;69.80;;;;;;4966585;28;20129;-62
2021/04/24 10:58:30;;;;;;;19.05;7.55;;;20.40;69.80;;;;;;4972408;28;20474;-61
2021/04/24 11:01:06;;;;;;;19.05;7.10;;;20.40;70.00;;;;;;4970724;28;20047;-65
2021/04/24 11:03:42;;;;;;;24.05;7.75;;;20.40;70.00;;;;;;4974265;28;20391;-64
2021/04/24 11:06:13;;;;;;;17.13;6.65;;;20.40;69.90;;;;;;4966800;28;20031;-65
2021/04/24 11:08:43;;;;;;;19.25;7.18;;;20.40;69.80;;;;;;4971038;28;20027;-65
2021/04/24 11:11:15;;;;;;;16.90;7.38;;;20.40;70.10;;;;;;4973396;28;20045;-66
2021/04/24 11:13:47;;;;;;;19.65;6.75;;;20.30;70.60;;;;;;4956785;28;20035;-60
2021/04/24 11:16:18;;;;;;;18.45;6.72;;;20.30;69.90;;;;;;4965427;28;20032;-63
2021/04/24 11:18:48;;;;;;;16.80;7.03;;;20.30;69.90;;;;;;4972313;28;20033;-66
2021/04/24 11:21:18;;;;;;;19.55;6.97;;;20.30;70.00;;;;;;4972262;28;20105;-64
2021/04/24 11:24:19;;;;;;;16.77;6.82;;;20.20;70.20;;;;;;4970173;28;20034;-67
2021/04/24 11:26:47;;;;;;;17.63;6.57;;;20.30;70.10;;;;;;4921673;28;20157;-63
2021/04/24 11:29:16;;;;;;;18.77;7.25;;;20.20;69.90;;;;;;4972671;28;20047;-62
2021/04/24 11:31:49;;;;;;;16.40;6.85;;;20.20;69.90;;;;;;4971318;28;20022;-64
2021/04/24 11:34:34;;;;;;;20.80;7.15;;;20.20;69.90;;;;;;4972807;28;20134;-66
2021/04/24 11:37:26;;;;;;;13.63;6.45;;;20.20;70.00;;;;;;4965128;28;20478;-64
2021/04/24 11:40:12;;;;;;;16.15;6.53;;;20.20;70.00;;;;;;4973170;28;20106;-67
2021/04/24 11:42:55;;;;;;;16.65;7.10;;;20.20;70.10;;;;;;4970780;28;20031;-68
2021/04/24 11:45:44;;;;;;;17.52;7.25;;;20.10;69.90;;;;;;4966776;28;20795;-69
2021/04/24 11:48:12;;;;;;;18.48;6.65;;;20.10;70.00;;;;;;4970953;28;20130;-69
2021/04/24 11:50:42;;;;;;;17.85;6.63;;;20.10;70.00;;;;;;4972686;28;20113;-69
2021/04/24 11:53:10;;;;;;;15.48;6.28;;;20.10;70.00;;;;;;4972742;28;20054;-67
2021/04/24 11:55:39;;;;;;;15.48;6.78;;;20.00;69.90;;;;;;4962722;28;20042;-66
2021/04/24 11:58:11;;;;;;;12.38;6.63;;;20.00;70.10;;;;;;4969142;28;20034;-67
2021/04/24 12:00:40;;;;;;;16.63;7.10;;;20.00;70.10;;;;;;4973131;28;20042;-71
2021/04/24 12:03:07;;;;;;;18.65;7.03;;;19.90;70.00;;;;;;4971456;28;20023;-69
2021/04/24 12:05:44;;;;;;;15.65;6.65;;;20.00;70.20;;;;;;4963890;28;20066;-61
2021/04/24 12:08:22;;;;;;;19.73;6.82;;;19.90;70.20;;;;;;4972886;28;20019;-64
2021/04/24 12:10:49;;;;;;;13.68;6.85;;;19.90;70.30;;;;;;4972608;28;20062;-67
2021/04/24 12:13:17;;;;;;;16.58;7.05;;;19.90;70.50;;;;;;4972465;28;20097;-65
2021/04/24 12:15:52;;;;;;;14.52;6.80;;;19.80;70.50;;;;;;4961870;28;20031;-66
2021/04/24 12:18:20;;;;;;;14.35;6.53;;;19.80;70.50;;;;;;4970408;28;20114;-64
2021/04/24 12:20:47;;;;;;;15.10;6.63;;;19.80;70.70;;;;;;4970011;28;20037;-64
2021/04/24 12:23:17;;;;;;;13.93;7.00;;;19.80;70.90;;;;;;4972737;28;20057;-59
2021/04/24 12:25:48;;;;;;;9.70;6.18;;;19.80;71.10;;;;;;4967030;28;20034;-64
2021/04/24 12:28:22;;;;;;;12.55;6.00;;;19.80;71.20;;;;;;4973154;28;20027;-65
2021/04/24 12:30:52;;;;;;;18.13;7.13;;;19.70;71.00;;;;;;4973643;28;20037;-66
2021/04/24 12:33:22;;;;;;;13.88;6.40;;;19.70;71.00;;;;;;4971953;28;20030;-65
2021/04/24 12:36:00;;;;;;;15.23;6.25;;;19.70;71.10;;;;;;4967665;28;20454;-67
2021/04/24 12:38:31;;;;;;;16.38;7.05;;;19.70;71.20;;;;;;4965263;28;20047;-68
2021/04/24 12:41:01;;;;;;;9.55;5.88;;;19.70;71.20;;;;;;4963747;28;20057;-66
2021/04/24 12:43:36;;;;;;;10.27;5.72;;;19.70;71.30;;;;;;4962484;28;20027;-67
2021/04/24 12:46:05;;;;;;;16.88;6.20;;;19.60;71.20;;;;;;4960115;28;20045;-67
2021/04/24 12:48:41;;;;;;;12.40;5.88;;;19.60;71.30;;;;;;4955065;28;20023;-65
2021/04/24 12:51:17;;;;;;;10.82;6.43;;;19.60;71.40;;;;;;4965575;28;20041;-66
2021/04/24 12:53:47;;;;;;;14.80;6.22;;;19.60;71.30;;;;;;4959164;28;20434;-67